createdAt,value
2023-04-15T00:00:33.949Z,6.65
2023-04-15T00:03:04.404Z,6.45
2023-04-15T00:05:35.516Z,6.48
2023-04-15T00:08:04.060Z,6.25
2023-04-15T00:10:33.357Z,6.64
2023-04-15T00:13:04.058Z,6.59
2023-04-15T00:15:32.265Z,6.43
2023-04-15T00:18:00.885Z,6.58
2023-04-15T00:20:29.151Z,6.47
2023-04-15T00:22:58.014Z,6.81
2023-04-15T00:25:26.500Z,6.92
2023-04-15T00:27:56.522Z,6.80
2023-04-15T00:30:25.763Z,6.95
2023-04-15T00:32:55.730Z,6.94
2023-04-15T00:35:24.236Z,6.86
2023-04-15T00:37:52.340Z,6.69
2023-04-15T00:40:22.392Z,6.56
2023-04-15T00:42:52.521Z,6.60
2023-04-15T00:45:24.272Z,6.89
2023-04-15T00:47:53.507Z,6.77
2023-04-15T00:50:21.695Z,6.72
2023-04-15T00:52:51.392Z,6.88
2023-04-15T00:55:20.387Z,6.76
2023-04-15T00:57:50.063Z,6.59
2023-04-15T01:00:28.183Z,6.49
2023-04-15T01:02:56.831Z,6.61
2023-04-15T01:05:25.470Z,6.76
2023-04-15T01:07:59.912Z,6.66
2023-04-15T01:10:30.271Z,6.69
2023-04-15T01:12:59.446Z,6.62
2023-04-15T01:15:29.971Z,6.47
2023-04-15T01:18:01.352Z,6.50
2023-04-15T01:20:32.824Z,6.27
2023-04-15T01:23:01.867Z,6.30
2023-04-15T01:25:35.660Z,6.15
2023-04-15T01:28:06.270Z,6.22
2023-04-15T01:30:38.069Z,6.27
2023-04-15T01:33:07.039Z,6.28
2023-04-15T01:35:54.624Z,6.33
2023-04-15T01:38:30.784Z,6.24
2023-04-15T01:41:07.663Z,6.25
2023-04-15T01:43:39.332Z,6.16
2023-04-15T01:46:08.676Z,6.33
2023-04-15T01:48:37.816Z,6.07
2023-04-15T01:51:08.206Z,6.32
2023-04-15T01:53:37.683Z,6.46
2023-04-15T01:56:12.104Z,6.33
2023-04-15T01:58:52.257Z,6.56
2023-04-15T02:01:24.591Z,6.60
2023-04-15T02:03:56.990Z,6.62
2023-04-15T02:06:28.182Z,6.64
2023-04-15T02:08:59.230Z,6.36
2023-04-15T02:11:30.295Z,6.60
2023-04-15T02:13:59.484Z,6.57
2023-04-15T02:16:29.498Z,6.47
2023-04-15T02:19:04.503Z,6.36
2023-04-15T02:21:35.412Z,6.21
2023-04-15T02:24:06.901Z,6.13
2023-04-15T02:26:37.898Z,5.96
2023-04-15T02:29:09.227Z,6.22
2023-04-15T02:31:40.814Z,6.23
2023-04-15T02:34:14.725Z,6.15
2023-04-15T02:36:47.170Z,5.76
2023-04-15T02:39:18.855Z,5.92
2023-04-15T02:41:51.936Z,6.07
2023-04-15T02:44:25.147Z,6.07
2023-04-15T02:46:54.929Z,5.96
2023-04-15T02:49:27.389Z,6.04
2023-04-15T02:51:59.290Z,5.96
2023-04-15T02:54:30.023Z,5.85
2023-04-15T02:57:02.166Z,6.02
2023-04-15T02:59:31.819Z,6.01
2023-04-15T03:02:01.993Z,6.02
2023-04-15T03:04:31.303Z,5.90
2023-04-15T03:07:01.417Z,5.77
2023-04-15T03:09:31.143Z,5.88
2023-04-15T03:12:02.565Z,5.46
2023-04-15T03:14:32.076Z,5.81
2023-04-15T03:17:01.475Z,5.71
2023-04-15T03:19:30.722Z,5.66
2023-04-15T03:22:00.468Z,5.65
2023-04-15T03:24:30.384Z,5.90
2023-04-15T03:27:01.963Z,5.79
2023-04-15T03:29:31.609Z,5.70
2023-04-15T03:32:01.227Z,5.62
2023-04-15T03:34:33.600Z,5.71
2023-04-15T03:37:04.534Z,5.53
2023-04-15T03:39:33.929Z,5.61
2023-04-15T03:42:07.169Z,5.52
2023-04-15T03:44:36.349Z,5.17
2023-04-15T03:47:05.457Z,5.27
2023-04-15T03:49:34.913Z,5.48
2023-04-15T03:52:04.205Z,5.32
2023-04-15T03:54:33.357Z,5.58
2023-04-15T03:57:04.578Z,5.61
2023-04-15T03:59:33.720Z,5.58
2023-04-15T04:02:04.829Z,5.55
2023-04-15T04:04:35.579Z,5.53
2023-04-15T04:07:06.528Z,5.29
2023-04-15T04:09:41.855Z,5.61
2023-04-15T04:12:14.813Z,5.49
2023-04-15T04:14:44.160Z,5.49
2023-04-15T04:17:13.757Z,5.32
2023-04-15T04:19:44.070Z,5.36
2023-04-15T04:22:14.472Z,5.35
2023-04-15T04:24:43.914Z,5.76
2023-04-15T04:27:15.085Z,5.84
2023-04-15T04:29:49.994Z,5.75
2023-04-15T04:32:19.978Z,5.76
2023-04-15T04:34:50.093Z,5.63
2023-04-15T04:37:26.510Z,5.78
2023-04-15T04:39:56.301Z,5.77
2023-04-15T04:42:33.042Z,5.87
2023-04-15T04:45:02.536Z,5.80
2023-04-15T04:47:37.219Z,5.86
2023-04-15T04:50:09.387Z,5.89
2023-04-15T04:52:39.280Z,5.83
2023-04-15T04:55:11.678Z,5.77
2023-04-15T04:57:42.372Z,5.87
2023-04-15T05:00:12.862Z,5.99
2023-04-15T05:02:46.279Z,5.90
2023-04-15T05:05:16.264Z,6.03
2023-04-15T05:07:46.953Z,6.19
2023-04-15T05:10:18.679Z,6.17
2023-04-15T05:12:50.697Z,6.12
2023-04-15T05:15:20.807Z,6.30
2023-04-15T05:17:55.494Z,6.37
2023-04-15T05:20:25.457Z,6.52
2023-04-15T05:22:55.087Z,6.43
2023-04-15T05:25:25.277Z,6.40
2023-04-15T05:28:02.430Z,6.20
2023-04-15T05:30:31.497Z,6.64
2023-04-15T05:33:04.138Z,6.65
2023-04-15T05:35:34.268Z,6.56
2023-04-15T05:38:05.871Z,6.68
2023-04-15T05:40:37.741Z,6.63
2023-04-15T05:43:13.819Z,6.94
2023-04-15T05:45:43.124Z,6.57
2023-04-15T05:48:13.054Z,6.99
2023-04-15T05:50:43.095Z,7.03
2023-04-15T05:53:12.905Z,7.14
2023-04-15T05:55:42.919Z,7.29
2023-04-15T05:58:15.346Z,7.38
2023-04-15T06:00:48.147Z,7.40
2023-04-15T06:03:18.443Z,7.59
2023-04-15T06:05:48.089Z,7.71
2023-04-15T06:08:17.270Z,8.08
2023-04-15T06:10:47.329Z,8.12
2023-04-15T06:13:18.164Z,8.41
2023-04-15T06:15:47.931Z,8.46
2023-04-15T06:18:17.598Z,8.41
2023-04-15T06:20:47.126Z,8.65
2023-04-15T06:23:16.726Z,8.71
2023-04-15T06:25:46.270Z,8.72
2023-04-15T06:28:20.566Z,8.71
2023-04-15T06:30:50.831Z,9.17
2023-04-15T06:33:21.693Z,9.31
2023-04-15T06:35:51.205Z,9.49
2023-04-15T06:38:20.589Z,9.43
2023-04-15T06:40:49.795Z,9.31
2023-04-15T06:43:20.885Z,9.43
2023-04-15T06:45:53.032Z,9.64
2023-04-15T06:48:27.867Z,9.68
2023-04-15T06:51:01.355Z,9.72
2023-04-15T06:53:30.656Z,9.90
2023-04-15T06:56:03.200Z,9.82
2023-04-15T06:58:33.962Z,9.99
2023-04-15T07:01:04.870Z,10.14
2023-04-15T07:03:34.604Z,10.15
2023-04-15T07:06:06.758Z,10.28
2023-04-15T07:08:36.071Z,10.62
2023-04-15T07:11:06.555Z,10.63
2023-04-15T07:13:38.663Z,10.44
2023-04-15T07:16:08.958Z,10.65
2023-04-15T07:18:39.164Z,10.91
2023-04-15T07:21:11.766Z,11.00
2023-04-15T07:23:41.191Z,11.10
2023-04-15T07:26:11.149Z,11.18
2023-04-15T07:28:42.271Z,11.28
2023-04-15T07:31:12.117Z,11.04
2023-04-15T07:33:42.519Z,11.11
2023-04-15T07:36:12.321Z,10.98
2023-04-15T07:38:42.761Z,10.50
2023-04-15T07:41:12.580Z,10.87
2023-04-15T07:43:45.019Z,11.17
2023-04-15T07:46:14.324Z,11.31
2023-04-15T07:48:46.828Z,11.30
2023-04-15T07:51:22.348Z,11.43
2023-04-15T07:53:52.079Z,11.73
2023-04-15T07:56:22.892Z,11.27
2023-04-15T07:58:57.675Z,11.29
2023-04-15T08:01:27.730Z,11.75
2023-04-15T08:03:58.074Z,11.74
2023-04-15T08:06:27.529Z,11.61
2023-04-15T08:08:56.990Z,11.66
2023-04-15T08:11:28.220Z,11.99
2023-04-15T08:14:00.150Z,11.76
2023-04-15T08:16:29.713Z,11.58
2023-04-15T08:18:59.147Z,11.66
2023-04-15T08:21:30.853Z,12.16
2023-04-15T08:24:00.417Z,12.49
2023-04-15T08:26:30.130Z,12.53
2023-04-15T08:29:01.011Z,12.73
2023-04-15T08:31:30.973Z,12.48
2023-04-15T08:34:03.060Z,12.66
2023-04-15T08:36:32.946Z,12.82
2023-04-15T08:39:05.679Z,13.02
2023-04-15T08:41:42.133Z,13.30
2023-04-15T08:44:13.964Z,13.02
2023-04-15T08:46:46.959Z,12.87
2023-04-15T08:49:18.953Z,12.85
2023-04-15T08:51:49.789Z,13.16
2023-04-15T08:54:20.024Z,13.13
2023-04-15T08:56:49.712Z,13.44
2023-04-15T08:59:27.143Z,13.57
2023-04-15T09:01:58.462Z,13.81
2023-04-15T09:04:29.857Z,13.84
2023-04-15T09:06:59.391Z,13.68
2023-04-15T09:09:33.139Z,13.47
2023-04-15T09:12:04.172Z,13.56
2023-04-15T09:14:35.659Z,13.36
2023-04-15T09:17:13.247Z,13.14
2023-04-15T09:19:45.064Z,13.81
2023-04-15T09:22:15.470Z,13.45
2023-04-15T09:24:45.064Z,13.68
2023-04-15T09:27:18.322Z,13.33
2023-04-15T09:29:52.298Z,13.34
2023-04-15T09:32:25.293Z,13.17
2023-04-15T09:34:54.919Z,13.06
2023-04-15T09:37:37.290Z,13.19
2023-04-15T09:40:08.342Z,13.28
2023-04-15T09:42:38.098Z,13.46
2023-04-15T09:45:13.478Z,13.08
2023-04-15T09:47:42.905Z,12.99
2023-04-15T09:50:12.242Z,13.21
2023-04-15T09:52:44.555Z,13.04
2023-04-15T09:55:19.799Z,13.01
2023-04-15T09:57:52.094Z,12.84
2023-04-15T10:00:22.748Z,12.59
2023-04-15T10:02:53.649Z,12.72
2023-04-15T10:05:23.498Z,12.51
2023-04-15T10:07:54.998Z,12.48
2023-04-15T10:10:26.007Z,12.79
2023-04-15T10:12:56.452Z,12.79
2023-04-15T10:15:31.245Z,13.07
2023-04-15T10:18:03.447Z,12.88
2023-04-15T10:20:35.019Z,12.84
2023-04-15T10:23:06.855Z,13.14
2023-04-15T10:25:38.431Z,13.10
2023-04-15T10:28:09.655Z,13.66
2023-04-15T10:30:45.223Z,13.76
2023-04-15T10:33:21.410Z,13.73
2023-04-15T10:35:53.003Z,13.78
2023-04-15T10:38:38.917Z,14.35
2023-04-15T10:41:17.995Z,14.43
2023-04-15T10:43:52.950Z,14.64
2023-04-15T10:46:38.066Z,14.47
2023-04-15T10:49:12.408Z,14.11
2023-04-15T10:51:43.308Z,14.21
2023-04-15T10:54:15.992Z,14.02
2023-04-15T10:56:47.424Z,13.59
2023-04-15T10:59:20.346Z,13.56
2023-04-15T11:02:04.053Z,13.31
2023-04-15T11:04:56.284Z,13.23
2023-04-15T11:07:40.414Z,13.00
2023-04-15T11:10:53.126Z,13.33
2023-04-15T11:13:25.837Z,13.30
2023-04-15T11:16:01.727Z,13.30
2023-04-15T11:18:36.430Z,13.03
2023-04-15T11:21:07.858Z,12.86
2023-04-15T11:23:39.957Z,12.88
2023-04-15T11:26:15.240Z,12.23
2023-04-15T11:28:47.217Z,12.55
2023-04-15T11:31:18.550Z,12.37
2023-04-15T11:33:57.009Z,12.22
2023-04-15T11:39:25.516Z,12.24
2023-04-15T11:41:56.061Z,12.06
2023-04-15T11:44:27.776Z,11.72
2023-04-15T11:46:57.834Z,11.59
2023-04-15T11:49:36.240Z,11.29
2023-04-15T11:52:13.724Z,11.51
2023-04-15T11:54:42.980Z,11.90
2023-04-15T11:57:12.065Z,11.94
2023-04-15T12:02:35.249Z,11.59
2023-04-15T12:05:08.443Z,11.40
2023-04-15T12:08:21.816Z,11.60
2023-04-15T12:14:00.182Z,11.82
2023-04-15T12:19:30.977Z,11.72
2023-04-15T12:22:02.765Z,11.70
2023-04-15T12:24:34.983Z,11.50
2023-04-15T12:27:07.424Z,11.54
2023-04-15T12:29:42.000Z,11.43
2023-04-15T12:32:16.169Z,11.49
2023-04-15T12:34:49.098Z,11.62
2023-04-15T12:37:21.459Z,11.71
2023-04-15T12:39:55.328Z,11.57
2023-04-15T12:42:24.756Z,11.60
2023-04-15T12:44:53.698Z,11.04
2023-04-15T12:47:23.289Z,11.17
2023-04-15T12:49:52.584Z,11.02
2023-04-15T12:52:25.455Z,10.96
2023-04-15T12:54:56.802Z,11.26
2023-04-15T12:57:25.209Z,11.11
2023-04-15T12:59:57.470Z,11.12
2023-04-15T13:02:29.864Z,10.99
2023-04-15T13:05:00.249Z,10.67
2023-04-15T13:07:39.817Z,10.83
2023-04-15T13:10:17.402Z,11.06
2023-04-15T13:12:49.287Z,10.82
2023-04-15T13:15:21.992Z,11.10
2023-04-15T13:17:54.355Z,10.87
2023-04-15T13:20:26.378Z,10.90
2023-04-15T13:26:15.702Z,10.91
2023-04-15T13:28:46.192Z,10.96
2023-04-15T13:31:15.382Z,10.96
2023-04-15T13:33:45.448Z,10.74
2023-04-15T13:36:31.917Z,10.45
2023-04-15T13:39:24.802Z,10.74
2023-04-15T13:42:01.846Z,10.78
2023-04-15T13:44:30.730Z,10.70
2023-04-15T13:46:59.845Z,10.62
2023-04-15T13:53:03.659Z,10.65
2023-04-15T13:55:42.104Z,10.69
2023-04-15T14:17:43.732Z,11.05
2023-04-15T14:24:42.363Z,10.99
2023-04-15T14:27:27.117Z,10.89
2023-04-15T14:38:01.007Z,10.32
2023-04-15T14:46:00.165Z,10.58
2023-04-15T14:48:46.747Z,10.66
2023-04-15T14:54:35.038Z,10.54
2023-04-15T14:57:10.037Z,10.39
2023-04-15T14:59:39.251Z,10.53
2023-04-15T15:02:08.531Z,10.32
2023-04-15T15:04:37.407Z,10.41
2023-04-15T15:07:06.114Z,10.49
2023-04-15T15:09:37.132Z,10.63
2023-04-15T15:12:06.231Z,10.53
2023-04-15T15:14:51.261Z,10.33
2023-04-15T15:17:20.258Z,10.34
2023-04-15T15:19:49.556Z,10.03
2023-04-15T15:22:21.514Z,10.28
2023-04-15T15:24:55.388Z,10.47
2023-04-15T15:27:27.382Z,10.04
2023-04-15T15:29:56.177Z,10.34
2023-04-15T15:32:25.287Z,10.29
2023-04-15T15:40:29.416Z,10.07
2023-04-15T15:42:58.966Z,10.04
2023-04-15T15:45:30.036Z,9.87
2023-04-15T15:48:04.118Z,10.21
2023-04-15T15:50:32.994Z,9.93
2023-04-15T15:53:18.050Z,9.98
2023-04-15T15:55:55.898Z,10.27
2023-04-15T15:58:24.649Z,10.31
2023-04-15T16:01:01.478Z,10.24
2023-04-15T16:03:31.684Z,10.19
2023-04-15T16:06:02.597Z,10.07
2023-04-15T16:08:32.249Z,10.31
2023-04-15T16:11:04.338Z,10.42
2023-04-15T16:13:37.709Z,10.23
2023-04-15T16:16:09.454Z,10.30
2023-04-15T16:18:47.230Z,10.22
2023-04-15T16:29:51.764Z,10.30
2023-04-15T16:32:22.331Z,10.25
2023-04-15T16:34:51.654Z,10.00
2023-04-15T16:37:24.436Z,10.31
2023-04-15T16:39:58.026Z,10.28
2023-04-15T16:42:47.356Z,10.23
2023-04-15T16:45:25.102Z,10.24
2023-04-15T16:47:55.065Z,10.42
2023-04-15T16:50:26.997Z,10.33
2023-04-15T16:52:56.368Z,10.20
2023-04-15T16:58:25.279Z,10.13
2023-04-15T17:00:55.970Z,10.00
2023-04-15T17:03:43.815Z,10.04
2023-04-15T17:06:17.456Z,9.97
2023-04-15T17:08:46.484Z,10.09
2023-04-15T17:17:04.241Z,10.27
2023-04-15T17:19:45.255Z,10.19
2023-04-15T17:22:30.520Z,10.15
2023-04-15T17:25:20.729Z,10.00
2023-04-15T17:27:54.415Z,10.07
2023-04-15T17:31:10.599Z,10.18
2023-04-15T17:34:49.643Z,9.89
2023-04-15T17:37:55.333Z,9.90
2023-04-15T17:41:13.577Z,10.29
2023-04-15T17:51:30.484Z,9.74
2023-04-15T17:54:46.573Z,9.92
2023-04-15T17:57:38.388Z,10.20
2023-04-15T18:00:30.165Z,9.82
2023-04-15T18:03:25.853Z,10.07
2023-04-15T18:06:22.452Z,10.11
2023-04-15T18:09:12.694Z,9.68
2023-04-15T18:12:08.055Z,9.96
2023-04-15T18:17:59.493Z,9.64
2023-04-15T18:26:16.213Z,9.85
2023-04-15T18:28:46.199Z,9.77
2023-04-15T18:31:17.829Z,9.93
2023-04-15T18:33:51.428Z,9.77
2023-04-15T18:36:23.449Z,9.97
2023-04-15T18:39:07.301Z,9.95
2023-04-15T18:41:52.057Z,9.87
2023-04-15T18:44:25.259Z,9.72
2023-04-15T18:50:00.754Z,10.12
2023-04-15T18:52:52.138Z,10.02
2023-04-15T18:58:21.435Z,10.20
2023-04-15T19:01:02.580Z,10.17
2023-04-15T19:03:32.367Z,9.92
2023-04-15T19:06:04.277Z,9.93
2023-04-15T19:08:32.895Z,9.92
2023-04-15T19:11:04.882Z,9.71
2023-04-15T19:13:41.830Z,9.98
2023-04-15T19:16:22.277Z,9.88
2023-04-15T19:18:53.345Z,9.95
2023-04-15T19:21:45.223Z,10.09
2023-04-15T19:24:14.634Z,10.05
2023-04-15T19:27:00.907Z,9.93
2023-04-15T19:29:34.348Z,9.95
2023-04-15T19:32:33.786Z,9.91
2023-04-15T19:47:47.579Z,9.94
2023-04-15T19:50:17.318Z,10.11
2023-04-15T19:53:02.614Z,10.36
2023-04-15T19:55:33.896Z,10.30
2023-04-15T20:00:46.183Z,10.35
2023-04-15T20:06:16.909Z,10.37
2023-04-15T20:08:50.897Z,10.35
2023-04-15T20:11:21.093Z,10.26
2023-04-15T20:13:50.097Z,10.44
2023-04-15T20:16:28.562Z,10.44
2023-04-15T20:19:09.415Z,10.30
2023-04-15T20:21:38.273Z,10.07
2023-04-15T20:24:10.129Z,10.05
2023-04-15T20:26:41.102Z,10.23
2023-04-15T20:29:12.196Z,10.21
2023-04-15T20:31:40.675Z,10.30
2023-04-15T20:34:12.222Z,10.15
2023-04-15T20:36:40.588Z,10.11
2023-04-15T20:41:54.536Z,10.04
2023-04-15T20:44:32.520Z,10.04
2023-04-15T20:47:01.371Z,10.18
2023-04-15T20:49:58.364Z,10.05
2023-04-15T20:55:12.772Z,10.15
2023-04-15T20:57:41.681Z,10.20
2023-04-15T21:00:17.254Z,10.14
2023-04-15T21:02:48.503Z,10.17
2023-04-15T21:05:23.299Z,10.01
2023-04-15T21:08:06.558Z,10.07
2023-04-15T21:10:37.197Z,9.97
2023-04-15T21:13:11.214Z,10.23
2023-04-15T21:15:54.949Z,10.03
2023-04-15T21:18:23.863Z,10.28
2023-04-15T21:21:02.260Z,10.28
2023-04-15T21:23:36.151Z,10.06
2023-04-15T21:28:48.488Z,10.13
2023-04-15T21:31:18.544Z,9.80
2023-04-15T21:33:50.821Z,10.11
2023-04-15T21:36:32.747Z,10.15
2023-04-15T21:39:02.713Z,10.21
2023-04-15T21:44:32.825Z,10.14
2023-04-15T21:50:15.638Z,10.09
2023-04-15T22:03:09.219Z,10.12
2023-04-15T22:05:52.439Z,10.00
2023-04-15T22:08:38.705Z,10.15
2023-04-15T22:11:33.978Z,9.98
2023-04-15T22:26:59.020Z,10.04
2023-04-15T22:29:28.325Z,10.03
2023-04-15T22:31:59.636Z,10.11
2023-04-15T22:34:31.918Z,10.11
2023-04-15T22:37:04.114Z,10.20
2023-04-15T22:42:41.453Z,10.06
2023-04-15T22:48:07.650Z,10.14
2023-04-15T22:50:39.541Z,10.29
2023-04-15T22:53:09.555Z,10.30
2023-04-15T22:55:38.939Z,10.28
2023-04-15T22:58:08.745Z,10.33
2023-04-15T23:00:37.005Z,10.27
2023-04-15T23:03:10.194Z,10.27
2023-04-15T23:05:41.484Z,10.27
2023-04-15T23:08:09.905Z,10.37
2023-04-15T23:10:44.631Z,10.43
2023-04-15T23:13:15.245Z,10.28
2023-04-15T23:15:44.345Z,10.30
2023-04-15T23:18:15.113Z,10.22
2023-04-15T23:20:46.349Z,10.45
2023-04-15T23:23:28.827Z,10.42
2023-04-15T23:26:05.839Z,10.20
2023-04-15T23:28:37.187Z,10.27
2023-04-15T23:31:17.060Z,10.32
2023-04-15T23:33:48.094Z,10.45
2023-04-15T23:36:25.953Z,10.32
2023-04-15T23:38:54.346Z,10.37
2023-04-15T23:41:33.476Z,10.32
2023-04-15T23:44:05.556Z,10.34
2023-04-15T23:46:48.434Z,10.37
2023-04-15T23:49:20.718Z,10.30
2023-04-15T23:51:51.837Z,10.47
2023-04-15T23:54:20.422Z,10.35
